sensor_id;sensor_type;location;lat;lon;timestamp;P1;durP1;ratioP1;P2;durP2;ratioP2
6665;SDS011;3369;49.906;8.598;2023-03-01T00:00:47;11.87;;;9.43;;
6665;SDS011;3369;49.906;8.598;2023-03-01T00:03:12;14.30;;;9.70;;
6665;SDS011;3369;49.906;8.598;2023-03-01T00:08:21;13.00;;;9.10;;
6665;SDS011;3369;49.906;8.598;2023-03-01T00:10:47;11.27;;;8.70;;
6665;SDS011;3369;49.906;8.598;2023-03-01T00:13:13;12.50;;;9.07;;
6665;SDS011;3369;49.906;8.598;2023-03-01T00:15:39;13.13;;;9.60;;
6665;SDS011;3369;49.906;8.598;2023-03-01T00:18:06;13.60;;;9.80;;
6665;SDS011;3369;49.906;8.598;2023-03-01T00:24:26;11.87;;;8.47;;
6665;SDS011;3369;49.906;8.598;2023-03-01T00:27:01;14.63;;;9.23;;
6665;SDS011;3369;49.906;8.598;2023-03-01T00:29:27;12.13;;;9.53;;
6665;SDS011;3369;49.906;8.598;2023-03-01T00:31:53;13.93;;;9.90;;
6665;SDS011;3369;49.906;8.598;2023-03-01T00:34:19;13.13;;;9.40;;
6665;SDS011;3369;49.906;8.598;2023-03-01T00:36:45;12.07;;;8.93;;
6665;SDS011;3369;49.906;8.598;2023-03-01T00:39:12;14.23;;;9.27;;
6665;SDS011;3369;49.906;8.598;2023-03-01T00:41:39;14.13;;;10.17;;
6665;SDS011;3369;49.906;8.598;2023-03-01T00:44:06;12.77;;;9.27;;
6665;SDS011;3369;49.906;8.598;2023-03-01T00:46:34;12.50;;;9.67;;
6665;SDS011;3369;49.906;8.598;2023-03-01T00:49:00;12.10;;;9.00;;
6665;SDS011;3369;49.906;8.598;2023-03-01T00:55:07;12.07;;;8.60;;
6665;SDS011;3369;49.906;8.598;2023-03-01T00:57:34;12.20;;;8.83;;
6665;SDS011;3369;49.906;8.598;2023-03-01T00:59:59;10.83;;;9.03;;
6665;SDS011;3369;49.906;8.598;2023-03-01T01:02:25;10.20;;;7.97;;
6665;SDS011;3369;49.906;8.598;2023-03-01T01:04:51;10.23;;;7.93;;
6665;SDS011;3369;49.906;8.598;2023-03-01T01:07:22;11.10;;;7.93;;
6665;SDS011;3369;49.906;8.598;2023-03-01T01:31:47;12.20;;;8.37;;
6665;SDS011;3369;49.906;8.598;2023-03-01T01:34:14;11.30;;;8.40;;
6665;SDS011;3369;49.906;8.598;2023-03-01T01:36:43;12.67;;;8.50;;
6665;SDS011;3369;49.906;8.598;2023-03-01T01:39:12;11.93;;;8.43;;
6665;SDS011;3369;49.906;8.598;2023-03-01T01:41:40;11.40;;;7.87;;
6665;SDS011;3369;49.906;8.598;2023-03-01T01:44:15;11.47;;;8.10;;
6665;SDS011;3369;49.906;8.598;2023-03-01T01:49:28;11.23;;;8.33;;
6665;SDS011;3369;49.906;8.598;2023-03-01T01:52:04;12.93;;;9.77;;
6665;SDS011;3369;49.906;8.598;2023-03-01T01:54:37;11.73;;;9.50;;
6665;SDS011;3369;49.906;8.598;2023-03-01T01:57:19;17.27;;;10.43;;
6665;SDS011;3369;49.906;8.598;2023-03-01T02:00:01;14.80;;;11.03;;
6665;SDS011;3369;49.906;8.598;2023-03-01T02:02:33;14.33;;;10.07;;
6665;SDS011;3369;49.906;8.598;2023-03-01T02:05:09;16.83;;;10.97;;
6665;SDS011;3369;49.906;8.598;2023-03-01T02:07:42;17.57;;;11.67;;
6665;SDS011;3369;49.906;8.598;2023-03-01T02:10:28;15.43;;;11.00;;
6665;SDS011;3369;49.906;8.598;2023-03-01T02:12:58;14.87;;;11.07;;
6665;SDS011;3369;49.906;8.598;2023-03-01T02:15:24;17.20;;;11.47;;
6665;SDS011;3369;49.906;8.598;2023-03-01T02:17:57;15.90;;;10.70;;
6665;SDS011;3369;49.906;8.598;2023-03-01T02:20:26;16.57;;;11.73;;
6665;SDS011;3369;49.906;8.598;2023-03-01T02:23:47;15.97;;;11.00;;
6665;SDS011;3369;49.906;8.598;2023-03-01T02:26:19;19.50;;;12.60;;
6665;SDS011;3369;49.906;8.598;2023-03-01T02:31:56;13.23;;;10.37;;
6665;SDS011;3369;49.906;8.598;2023-03-01T02:34:27;15.00;;;10.50;;
6665;SDS011;3369;49.906;8.598;2023-03-01T02:37:46;17.50;;;11.67;;
6665;SDS011;3369;49.906;8.598;2023-03-01T02:40:29;16.27;;;11.57;;
6665;SDS011;3369;49.906;8.598;2023-03-01T02:43:01;18.80;;;11.70;;
6665;SDS011;3369;49.906;8.598;2023-03-01T02:45:33;19.50;;;11.03;;
6665;SDS011;3369;49.906;8.598;2023-03-01T02:49:15;16.37;;;11.43;;
6665;SDS011;3369;49.906;8.598;2023-03-01T02:51:34;16.27;;;11.37;;
6665;SDS011;3369;49.906;8.598;2023-03-01T02:54:25;19.27;;;12.10;;
6665;SDS011;3369;49.906;8.598;2023-03-01T02:56:57;17.40;;;11.33;;
6665;SDS011;3369;49.906;8.598;2023-03-01T02:59:28;15.43;;;10.73;;
6665;SDS011;3369;49.906;8.598;2023-03-01T03:01:56;18.30;;;11.53;;
6665;SDS011;3369;49.906;8.598;2023-03-01T03:04:27;18.90;;;12.10;;
6665;SDS011;3369;49.906;8.598;2023-03-01T03:07:02;17.60;;;11.63;;
6665;SDS011;3369;49.906;8.598;2023-03-01T03:09:28;16.93;;;12.07;;
6665;SDS011;3369;49.906;8.598;2023-03-01T03:11:59;18.03;;;11.53;;
6665;SDS011;3369;49.906;8.598;2023-03-01T03:14:24;15.77;;;11.90;;
6665;SDS011;3369;49.906;8.598;2023-03-01T03:17:06;17.93;;;11.57;;
6665;SDS011;3369;49.906;8.598;2023-03-01T03:19:52;15.03;;;10.67;;
6665;SDS011;3369;49.906;8.598;2023-03-01T03:22:18;15.60;;;11.63;;
6665;SDS011;3369;49.906;8.598;2023-03-01T03:24:44;19.13;;;12.67;;
6665;SDS011;3369;49.906;8.598;2023-03-01T03:27:13;17.00;;;11.33;;
6665;SDS011;3369;49.906;8.598;2023-03-01T03:29:38;18.37;;;11.93;;
6665;SDS011;3369;49.906;8.598;2023-03-01T03:32:04;14.73;;;11.37;;
6665;SDS011;3369;49.906;8.598;2023-03-01T03:34:30;16.00;;;10.70;;
6665;SDS011;3369;49.906;8.598;2023-03-01T03:36:56;15.77;;;11.33;;
6665;SDS011;3369;49.906;8.598;2023-03-01T03:39:24;17.13;;;11.03;;
6665;SDS011;3369;49.906;8.598;2023-03-01T03:41:52;17.77;;;11.53;;
6665;SDS011;3369;49.906;8.598;2023-03-01T03:44:18;14.33;;;10.60;;
6665;SDS011;3369;49.906;8.598;2023-03-01T03:46:44;17.13;;;12.33;;
6665;SDS011;3369;49.906;8.598;2023-03-01T03:49:10;15.47;;;10.70;;
6665;SDS011;3369;49.906;8.598;2023-03-01T03:51:38;17.20;;;11.77;;
6665;SDS011;3369;49.906;8.598;2023-03-01T03:56:47;15.20;;;11.17;;
6665;SDS011;3369;49.906;8.598;2023-03-01T03:59:12;16.57;;;11.47;;
6665;SDS011;3369;49.906;8.598;2023-03-01T04:01:41;17.67;;;12.33;;
6665;SDS011;3369;49.906;8.598;2023-03-01T04:04:07;14.73;;;11.17;;
6665;SDS011;3369;49.906;8.598;2023-03-01T04:06:33;17.50;;;12.03;;
6665;SDS011;3369;49.906;8.598;2023-03-01T04:08:59;18.03;;;11.83;;
6665;SDS011;3369;49.906;8.598;2023-03-01T04:11:27;16.03;;;12.03;;
6665;SDS011;3369;49.906;8.598;2023-03-01T04:13:54;17.27;;;12.17;;
6665;SDS011;3369;49.906;8.598;2023-03-01T04:16:21;16.40;;;12.63;;
6665;SDS011;3369;49.906;8.598;2023-03-01T04:18:50;17.07;;;11.30;;
6665;SDS011;3369;49.906;8.598;2023-03-01T04:24:54;18.63;;;12.07;;
6665;SDS011;3369;49.906;8.598;2023-03-01T04:27:20;16.27;;;12.37;;
6665;SDS011;3369;49.906;8.598;2023-03-01T04:29:49;17.33;;;12.43;;
6665;SDS011;3369;49.906;8.598;2023-03-01T04:32:15;16.07;;;12.17;;
6665;SDS011;3369;49.906;8.598;2023-03-01T04:34:44;19.33;;;13.20;;
6665;SDS011;3369;49.906;8.598;2023-03-01T04:37:10;17.93;;;12.07;;
6665;SDS011;3369;49.906;8.598;2023-03-01T04:39:35;17.07;;;12.77;;
6665;SDS011;3369;49.906;8.598;2023-03-01T04:42:10;18.70;;;12.73;;
6665;SDS011;3369;49.906;8.598;2023-03-01T04:44:36;22.70;;;13.73;;
6665;SDS011;3369;49.906;8.598;2023-03-01T04:47:08;19.17;;;12.80;;
6665;SDS011;3369;49.906;8.598;2023-03-01T04:49:36;20.00;;;12.83;;
6665;SDS011;3369;49.906;8.598;2023-03-01T04:52:02;18.63;;;13.13;;
6665;SDS011;3369;49.906;8.598;2023-03-01T04:54:37;16.73;;;12.23;;
6665;SDS011;3369;49.906;8.598;2023-03-01T04:57:03;17.83;;;12.77;;
6665;SDS011;3369;49.906;8.598;2023-03-01T04:59:28;16.03;;;12.30;;
6665;SDS011;3369;49.906;8.598;2023-03-01T05:01:55;17.47;;;12.63;;
6665;SDS011;3369;49.906;8.598;2023-03-01T05:04:22;16.43;;;11.77;;
6665;SDS011;3369;49.906;8.598;2023-03-01T05:06:56;18.67;;;12.83;;
6665;SDS011;3369;49.906;8.598;2023-03-01T05:09:23;20.70;;;13.73;;
6665;SDS011;3369;49.906;8.598;2023-03-01T05:11:49;21.00;;;13.27;;
6665;SDS011;3369;49.906;8.598;2023-03-01T05:14:16;17.20;;;12.03;;
6665;SDS011;3369;49.906;8.598;2023-03-01T05:16:42;18.33;;;13.23;;
6665;SDS011;3369;49.906;8.598;2023-03-01T05:19:11;17.53;;;13.13;;
6665;SDS011;3369;49.906;8.598;2023-03-01T05:21:42;17.37;;;11.77;;
6665;SDS011;3369;49.906;8.598;2023-03-01T05:24:33;19.83;;;12.33;;
6665;SDS011;3369;49.906;8.598;2023-03-01T05:27:00;15.30;;;11.50;;
6665;SDS011;3369;49.906;8.598;2023-03-01T05:29:28;16.87;;;11.47;;
6665;SDS011;3369;49.906;8.598;2023-03-01T05:32:02;16.27;;;11.37;;
6665;SDS011;3369;49.906;8.598;2023-03-01T05:34:29;14.67;;;10.77;;
6665;SDS011;3369;49.906;8.598;2023-03-01T05:36:56;14.67;;;11.00;;
6665;SDS011;3369;49.906;8.598;2023-03-01T05:39:25;13.27;;;9.83;;
6665;SDS011;3369;49.906;8.598;2023-03-01T05:41:56;15.40;;;10.70;;
6665;SDS011;3369;49.906;8.598;2023-03-01T05:44:24;15.43;;;11.17;;
6665;SDS011;3369;49.906;8.598;2023-03-01T05:46:50;13.63;;;10.73;;
6665;SDS011;3369;49.906;8.598;2023-03-01T05:49:20;16.57;;;12.07;;
6665;SDS011;3369;49.906;8.598;2023-03-01T05:51:50;15.27;;;11.73;;
6665;SDS011;3369;49.906;8.598;2023-03-01T05:54:17;15.43;;;11.17;;
6665;SDS011;3369;49.906;8.598;2023-03-01T05:56:44;18.10;;;12.00;;
6665;SDS011;3369;49.906;8.598;2023-03-01T05:59:10;16.90;;;11.60;;
6665;SDS011;3369;49.906;8.598;2023-03-01T06:01:36;13.70;;;10.73;;
6665;SDS011;3369;49.906;8.598;2023-03-01T06:04:03;14.57;;;11.00;;
6665;SDS011;3369;49.906;8.598;2023-03-01T06:06:29;14.80;;;11.37;;
6665;SDS011;3369;49.906;8.598;2023-03-01T06:13:04;16.57;;;10.67;;
6665;SDS011;3369;49.906;8.598;2023-03-01T06:15:30;15.17;;;11.00;;
6665;SDS011;3369;49.906;8.598;2023-03-01T06:17:56;16.13;;;10.73;;
6665;SDS011;3369;49.906;8.598;2023-03-01T06:20:23;16.23;;;11.17;;
6665;SDS011;3369;49.906;8.598;2023-03-01T06:23:01;14.07;;;10.00;;
6665;SDS011;3369;49.906;8.598;2023-03-01T06:25:27;15.50;;;10.80;;
6665;SDS011;3369;49.906;8.598;2023-03-01T06:27:53;14.40;;;10.10;;
6665;SDS011;3369;49.906;8.598;2023-03-01T06:30:40;15.17;;;10.60;;
6665;SDS011;3369;49.906;8.598;2023-03-01T06:33:06;14.20;;;9.87;;
6665;SDS011;3369;49.906;8.598;2023-03-01T06:35:32;15.60;;;10.53;;
6665;SDS011;3369;49.906;8.598;2023-03-01T06:38:02;13.70;;;10.30;;
6665;SDS011;3369;49.906;8.598;2023-03-01T06:40:38;13.80;;;9.60;;
6665;SDS011;3369;49.906;8.598;2023-03-01T06:43:04;14.23;;;10.33;;
6665;SDS011;3369;49.906;8.598;2023-03-01T06:45:30;16.50;;;11.57;;
6665;SDS011;3369;49.906;8.598;2023-03-01T06:48:02;14.30;;;10.37;;
6665;SDS011;3369;49.906;8.598;2023-03-01T06:50:32;16.27;;;10.10;;
6665;SDS011;3369;49.906;8.598;2023-03-01T07:12:47;14.17;;;9.63;;
6665;SDS011;3369;49.906;8.598;2023-03-01T07:15:14;17.10;;;11.50;;
6665;SDS011;3369;49.906;8.598;2023-03-01T07:17:40;18.00;;;12.23;;
6665;SDS011;3369;49.906;8.598;2023-03-01T07:20:05;16.97;;;11.73;;
6665;SDS011;3369;49.906;8.598;2023-03-01T07:22:31;19.07;;;12.90;;
6665;SDS011;3369;49.906;8.598;2023-03-01T07:24:57;17.50;;;12.43;;
6665;SDS011;3369;49.906;8.598;2023-03-01T07:27:22;17.73;;;11.57;;
6665;SDS011;3369;49.906;8.598;2023-03-01T07:29:48;18.77;;;13.43;;
6665;SDS011;3369;49.906;8.598;2023-03-01T07:32:14;20.63;;;13.00;;
6665;SDS011;3369;49.906;8.598;2023-03-01T07:34:39;16.47;;;12.03;;
6665;SDS011;3369;49.906;8.598;2023-03-01T07:37:05;21.03;;;13.50;;
6665;SDS011;3369;49.906;8.598;2023-03-01T07:39:31;18.43;;;12.93;;
6665;SDS011;3369;49.906;8.598;2023-03-01T07:41:57;17.83;;;12.30;;
6665;SDS011;3369;49.906;8.598;2023-03-01T07:44:22;19.23;;;12.57;;
6665;SDS011;3369;49.906;8.598;2023-03-01T07:46:48;18.07;;;13.03;;
6665;SDS011;3369;49.906;8.598;2023-03-01T07:49:14;18.17;;;13.33;;
6665;SDS011;3369;49.906;8.598;2023-03-01T07:51:39;20.50;;;12.97;;
6665;SDS011;3369;49.906;8.598;2023-03-01T07:54:05;17.33;;;11.73;;
6665;SDS011;3369;49.906;8.598;2023-03-01T07:56:31;20.83;;;13.90;;
6665;SDS011;3369;49.906;8.598;2023-03-01T07:58:58;16.13;;;12.00;;
6665;SDS011;3369;49.906;8.598;2023-03-01T08:01:24;19.23;;;11.83;;
6665;SDS011;3369;49.906;8.598;2023-03-01T08:03:50;15.30;;;11.27;;
6665;SDS011;3369;49.906;8.598;2023-03-01T08:06:16;16.80;;;12.07;;
6665;SDS011;3369;49.906;8.598;2023-03-01T08:08:42;19.70;;;12.70;;
6665;SDS011;3369;49.906;8.598;2023-03-01T08:11:10;16.17;;;11.80;;
6665;SDS011;3369;49.906;8.598;2023-03-01T08:13:37;23.07;;;13.17;;
6665;SDS011;3369;49.906;8.598;2023-03-01T08:16:04;20.10;;;12.47;;
6665;SDS011;3369;49.906;8.598;2023-03-01T08:18:31;16.77;;;11.97;;
6665;SDS011;3369;49.906;8.598;2023-03-01T08:21:04;18.43;;;13.30;;
6665;SDS011;3369;49.906;8.598;2023-03-01T08:23:31;18.43;;;12.17;;
6665;SDS011;3369;49.906;8.598;2023-03-01T08:26:11;19.83;;;12.40;;
6665;SDS011;3369;49.906;8.598;2023-03-01T08:28:38;17.43;;;12.23;;
6665;SDS011;3369;49.906;8.598;2023-03-01T08:33:39;18.53;;;11.93;;
6665;SDS011;3369;49.906;8.598;2023-03-01T08:36:06;15.30;;;11.47;;
6665;SDS011;3369;49.906;8.598;2023-03-01T08:38:32;14.57;;;11.53;;
6665;SDS011;3369;49.906;8.598;2023-03-01T08:41:02;17.33;;;12.20;;
6665;SDS011;3369;49.906;8.598;2023-03-01T08:43:28;16.50;;;11.60;;
6665;SDS011;3369;49.906;8.598;2023-03-01T08:45:54;16.83;;;12.57;;
6665;SDS011;3369;49.906;8.598;2023-03-01T08:48:22;19.20;;;12.03;;
6665;SDS011;3369;49.906;8.598;2023-03-01T08:50:48;16.33;;;11.47;;
6665;SDS011;3369;49.906;8.598;2023-03-01T08:53:13;15.47;;;10.87;;
6665;SDS011;3369;49.906;8.598;2023-03-01T08:55:39;16.47;;;11.60;;
6665;SDS011;3369;49.906;8.598;2023-03-01T08:58:05;15.17;;;11.50;;
6665;SDS011;3369;49.906;8.598;2023-03-01T09:00:31;17.37;;;11.60;;
6665;SDS011;3369;49.906;8.598;2023-03-01T09:02:59;15.73;;;11.43;;
6665;SDS011;3369;49.906;8.598;2023-03-01T09:05:25;14.80;;;11.00;;
6665;SDS011;3369;49.906;8.598;2023-03-01T09:07:51;16.90;;;12.50;;
6665;SDS011;3369;49.906;8.598;2023-03-01T09:10:17;15.73;;;11.90;;
6665;SDS011;3369;49.906;8.598;2023-03-01T09:12:43;17.47;;;12.63;;
6665;SDS011;3369;49.906;8.598;2023-03-01T09:15:09;14.80;;;11.47;;
6665;SDS011;3369;49.906;8.598;2023-03-01T09:17:35;21.60;;;12.40;;
6665;SDS011;3369;49.906;8.598;2023-03-01T09:20:01;15.20;;;11.43;;
6665;SDS011;3369;49.906;8.598;2023-03-01T09:22:26;16.17;;;11.10;;
6665;SDS011;3369;49.906;8.598;2023-03-01T09:24:52;16.17;;;12.00;;
6665;SDS011;3369;49.906;8.598;2023-03-01T09:27:17;21.30;;;11.83;;
6665;SDS011;3369;49.906;8.598;2023-03-01T09:29:44;14.57;;;11.33;;
6665;SDS011;3369;49.906;8.598;2023-03-01T09:32:13;14.47;;;10.90;;
6665;SDS011;3369;49.906;8.598;2023-03-01T09:34:38;19.43;;;12.37;;
6665;SDS011;3369;49.906;8.598;2023-03-01T09:37:23;16.60;;;11.27;;
6665;SDS011;3369;49.906;8.598;2023-03-01T09:39:48;16.60;;;11.57;;
6665;SDS011;3369;49.906;8.598;2023-03-01T09:45:25;16.57;;;12.67;;
6665;SDS011;3369;49.906;8.598;2023-03-01T09:48:07;16.40;;;12.00;;
6665;SDS011;3369;49.906;8.598;2023-03-01T09:50:39;15.87;;;12.37;;
6665;SDS011;3369;49.906;8.598;2023-03-01T09:53:13;16.53;;;12.00;;
6665;SDS011;3369;49.906;8.598;2023-03-01T09:55:44;15.30;;;11.43;;
6665;SDS011;3369;49.906;8.598;2023-03-01T10:09:54;16.67;;;12.30;;
6665;SDS011;3369;49.906;8.598;2023-03-01T10:12:21;19.60;;;12.67;;
6665;SDS011;3369;49.906;8.598;2023-03-01T10:15:02;15.57;;;11.93;;
6665;SDS011;3369;49.906;8.598;2023-03-01T10:20:25;14.33;;;11.47;;
6665;SDS011;3369;49.906;8.598;2023-03-01T10:22:55;17.00;;;12.43;;
6665;SDS011;3369;49.906;8.598;2023-03-01T10:25:30;16.10;;;12.33;;
6665;SDS011;3369;49.906;8.598;2023-03-01T10:28:31;14.67;;;11.17;;
6665;SDS011;3369;49.906;8.598;2023-03-01T10:31:06;16.40;;;12.20;;
6665;SDS011;3369;49.906;8.598;2023-03-01T10:33:45;17.03;;;11.70;;
6665;SDS011;3369;49.906;8.598;2023-03-01T10:36:13;16.30;;;11.40;;
6665;SDS011;3369;49.906;8.598;2023-03-01T10:38:50;13.47;;;10.40;;
6665;SDS011;3369;49.906;8.598;2023-03-01T10:41:23;16.10;;;12.27;;
6665;SDS011;3369;49.906;8.598;2023-03-01T10:43:51;15.63;;;11.37;;
6665;SDS011;3369;49.906;8.598;2023-03-01T10:46:26;16.90;;;12.83;;
6665;SDS011;3369;49.906;8.598;2023-03-01T10:49:19;18.00;;;12.17;;
6665;SDS011;3369;49.906;8.598;2023-03-01T10:51:51;16.80;;;12.10;;
6665;SDS011;3369;49.906;8.598;2023-03-01T10:56:48;16.50;;;12.10;;
6665;SDS011;3369;49.906;8.598;2023-03-01T11:07:47;14.10;;;11.63;;
6665;SDS011;3369;49.906;8.598;2023-03-01T11:10:19;15.60;;;11.77;;
6665;SDS011;3369;49.906;8.598;2023-03-01T11:13:13;14.73;;;11.50;;
6665;SDS011;3369;49.906;8.598;2023-03-01T11:15:40;12.70;;;10.87;;
6665;SDS011;3369;49.906;8.598;2023-03-01T11:18:17;22.43;;;12.30;;
6665;SDS011;3369;49.906;8.598;2023-03-01T11:20:45;15.63;;;10.57;;
6665;SDS011;3369;49.906;8.598;2023-03-01T11:23:14;15.57;;;11.27;;
6665;SDS011;3369;49.906;8.598;2023-03-01T11:25:46;13.83;;;11.30;;
6665;SDS011;3369;49.906;8.598;2023-03-01T11:28:19;15.43;;;13.50;;
6665;SDS011;3369;49.906;8.598;2023-03-01T11:33:17;14.17;;;12.70;;
6665;SDS011;3369;49.906;8.598;2023-03-01T11:36:04;13.87;;;11.73;;
6665;SDS011;3369;49.906;8.598;2023-03-01T11:38:40;16.77;;;12.80;;
6665;SDS011;3369;49.906;8.598;2023-03-01T11:41:08;14.00;;;11.57;;
6665;SDS011;3369;49.906;8.598;2023-03-01T11:43:58;18.37;;;12.43;;
6665;SDS011;3369;49.906;8.598;2023-03-01T11:46:37;15.50;;;11.40;;
6665;SDS011;3369;49.906;8.598;2023-03-01T12:01:07;16.63;;;11.13;;
6665;SDS011;3369;49.906;8.598;2023-03-01T12:15:07;13.33;;;9.50;;
6665;SDS011;3369;49.906;8.598;2023-03-01T12:20:21;14.93;;;8.93;;
6665;SDS011;3369;49.906;8.598;2023-03-01T12:28:57;10.57;;;8.40;;
6665;SDS011;3369;49.906;8.598;2023-03-01T12:51:32;10.40;;;7.67;;
6665;SDS011;3369;49.906;8.598;2023-03-01T12:54:01;8.47;;;7.07;;
6665;SDS011;3369;49.906;8.598;2023-03-01T12:56:37;10.07;;;8.50;;
6665;SDS011;3369;49.906;8.598;2023-03-01T13:02:15;12.43;;;8.27;;
6665;SDS011;3369;49.906;8.598;2023-03-01T13:32:32;13.15;;;10.00;;
6665;SDS011;3369;49.906;8.598;2023-03-01T13:37:44;10.52;;;9.20;;
6665;SDS011;3369;49.906;8.598;2023-03-01T13:42:51;9.85;;;8.85;;
6665;SDS011;3369;49.906;8.598;2023-03-01T13:45:33;7.87;;;7.07;;
6665;SDS011;3369;49.906;8.598;2023-03-01T13:50:45;10.37;;;7.77;;
6665;SDS011;3369;49.906;8.598;2023-03-01T13:53:19;10.27;;;7.77;;
6665;SDS011;3369;49.906;8.598;2023-03-01T13:58:44;10.97;;;7.87;;
6665;SDS011;3369;49.906;8.598;2023-03-01T14:01:23;12.60;;;8.53;;
6665;SDS011;3369;49.906;8.598;2023-03-01T14:03:49;10.47;;;8.20;;
6665;SDS011;3369;49.906;8.598;2023-03-01T14:06:17;8.50;;;7.00;;
6665;SDS011;3369;49.906;8.598;2023-03-01T14:08:47;10.67;;;7.97;;
6665;SDS011;3369;49.906;8.598;2023-03-01T14:16:35;10.17;;;7.27;;
6665;SDS011;3369;49.906;8.598;2023-03-01T14:21:45;8.83;;;7.00;;
6665;SDS011;3369;49.906;8.598;2023-03-01T14:24:21;8.10;;;6.73;;
6665;SDS011;3369;49.906;8.598;2023-03-01T14:26:49;9.90;;;6.97;;
6665;SDS011;3369;49.906;8.598;2023-03-01T14:32:54;7.43;;;6.40;;
6665;SDS011;3369;49.906;8.598;2023-03-01T14:35:26;7.43;;;6.33;;
6665;SDS011;3369;49.906;8.598;2023-03-01T14:37:59;8.07;;;6.83;;
6665;SDS011;3369;49.906;8.598;2023-03-01T14:40:27;10.07;;;6.77;;
6665;SDS011;3369;49.906;8.598;2023-03-01T14:43:40;9.53;;;6.60;;
6665;SDS011;3369;49.906;8.598;2023-03-01T14:45:56;9.07;;;7.53;;
6665;SDS011;3369;49.906;8.598;2023-03-01T14:48:22;9.13;;;7.07;;
6665;SDS011;3369;49.906;8.598;2023-03-01T14:50:49;8.30;;;7.10;;
6665;SDS011;3369;49.906;8.598;2023-03-01T14:53:20;8.63;;;6.73;;
6665;SDS011;3369;49.906;8.598;2023-03-01T14:55:54;10.60;;;7.70;;
6665;SDS011;3369;49.906;8.598;2023-03-01T14:58:24;10.03;;;7.20;;
6665;SDS011;3369;49.906;8.598;2023-03-01T15:00:58;9.53;;;7.07;;
6665;SDS011;3369;49.906;8.598;2023-03-01T15:03:42;9.43;;;6.87;;
6665;SDS011;3369;49.906;8.598;2023-03-01T15:06:11;9.07;;;6.67;;
6665;SDS011;3369;49.906;8.598;2023-03-01T15:08:41;8.67;;;7.70;;
6665;SDS011;3369;49.906;8.598;2023-03-01T15:13:50;10.37;;;7.67;;
6665;SDS011;3369;49.906;8.598;2023-03-01T15:16:46;12.53;;;8.43;;
6665;SDS011;3369;49.906;8.598;2023-03-01T15:19:52;11.70;;;7.97;;
6665;SDS011;3369;49.906;8.598;2023-03-01T15:25:59;9.87;;;7.30;;
6665;SDS011;3369;49.906;8.598;2023-03-01T15:49:21;9.03;;;7.10;;
6665;SDS011;3369;49.906;8.598;2023-03-01T15:56:11;9.33;;;7.10;;
6665;SDS011;3369;49.906;8.598;2023-03-01T16:02:50;7.93;;;6.67;;
6665;SDS011;3369;49.906;8.598;2023-03-01T16:05:23;9.83;;;7.27;;
6665;SDS011;3369;49.906;8.598;2023-03-01T16:11:52;9.17;;;6.80;;
6665;SDS011;3369;49.906;8.598;2023-03-01T16:14:19;11.20;;;7.17;;
6665;SDS011;3369;49.906;8.598;2023-03-01T16:16:51;11.23;;;7.53;;
6665;SDS011;3369;49.906;8.598;2023-03-01T16:19:17;9.20;;;6.97;;
6665;SDS011;3369;49.906;8.598;2023-03-01T16:21:43;11.47;;;7.60;;
6665;SDS011;3369;49.906;8.598;2023-03-01T16:24:13;9.00;;;6.83;;
6665;SDS011;3369;49.906;8.598;2023-03-01T16:26:39;10.03;;;7.57;;
6665;SDS011;3369;49.906;8.598;2023-03-01T16:29:05;9.43;;;7.20;;
6665;SDS011;3369;49.906;8.598;2023-03-01T16:31:31;9.03;;;6.03;;
6665;SDS011;3369;49.906;8.598;2023-03-01T16:33:58;11.97;;;8.17;;
6665;SDS011;3369;49.906;8.598;2023-03-01T16:36:25;14.63;;;7.13;;
6665;SDS011;3369;49.906;8.598;2023-03-01T16:38:53;9.97;;;7.60;;
6665;SDS011;3369;49.906;8.598;2023-03-01T16:41:21;11.00;;;7.83;;
6665;SDS011;3369;49.906;8.598;2023-03-01T16:43:48;10.27;;;7.97;;
6665;SDS011;3369;49.906;8.598;2023-03-01T16:46:18;12.07;;;8.13;;
6665;SDS011;3369;49.906;8.598;2023-03-01T16:48:46;12.00;;;8.23;;
6665;SDS011;3369;49.906;8.598;2023-03-01T16:51:13;9.70;;;8.20;;
6665;SDS011;3369;49.906;8.598;2023-03-01T16:53:39;13.00;;;8.80;;
6665;SDS011;3369;49.906;8.598;2023-03-01T16:56:06;10.20;;;7.27;;
6665;SDS011;3369;49.906;8.598;2023-03-01T17:01:19;10.40;;;8.43;;
6665;SDS011;3369;49.906;8.598;2023-03-01T17:03:49;11.40;;;8.63;;
6665;SDS011;3369;49.906;8.598;2023-03-01T17:06:16;13.00;;;9.17;;
6665;SDS011;3369;49.906;8.598;2023-03-01T17:08:49;14.10;;;8.47;;
6665;SDS011;3369;49.906;8.598;2023-03-01T17:11:18;13.10;;;10.20;;
6665;SDS011;3369;49.906;8.598;2023-03-01T17:13:44;14.03;;;9.63;;
6665;SDS011;3369;49.906;8.598;2023-03-01T17:16:14;13.37;;;9.00;;
6665;SDS011;3369;49.906;8.598;2023-03-01T17:18:52;12.33;;;8.60;;
6665;SDS011;3369;49.906;8.598;2023-03-01T17:21:17;15.53;;;10.40;;
6665;SDS011;3369;49.906;8.598;2023-03-01T17:23:44;12.63;;;9.67;;
6665;SDS011;3369;49.906;8.598;2023-03-01T17:26:11;10.93;;;8.80;;
6665;SDS011;3369;49.906;8.598;2023-03-01T17:28:43;16.63;;;10.27;;
6665;SDS011;3369;49.906;8.598;2023-03-01T17:31:10;13.37;;;9.20;;
6665;SDS011;3369;49.906;8.598;2023-03-01T17:33:36;13.80;;;9.97;;
6665;SDS011;3369;49.906;8.598;2023-03-01T17:36:01;17.33;;;10.07;;
6665;SDS011;3369;49.906;8.598;2023-03-01T17:38:28;13.80;;;9.47;;
6665;SDS011;3369;49.906;8.598;2023-03-01T17:40:53;13.43;;;9.70;;
6665;SDS011;3369;49.906;8.598;2023-03-01T17:43:19;13.53;;;8.80;;
6665;SDS011;3369;49.906;8.598;2023-03-01T17:45:45;14.77;;;9.77;;
6665;SDS011;3369;49.906;8.598;2023-03-01T17:48:16;12.13;;;9.27;;
6665;SDS011;3369;49.906;8.598;2023-03-01T17:50:42;14.50;;;9.87;;
6665;SDS011;3369;49.906;8.598;2023-03-01T17:53:08;13.77;;;9.23;;
6665;SDS011;3369;49.906;8.598;2023-03-01T17:55:36;12.30;;;8.93;;
6665;SDS011;3369;49.906;8.598;2023-03-01T17:58:07;14.93;;;8.97;;
6665;SDS011;3369;49.906;8.598;2023-03-01T18:00:34;12.33;;;9.60;;
6665;SDS011;3369;49.906;8.598;2023-03-01T18:03:01;14.30;;;9.37;;
6665;SDS011;3369;49.906;8.598;2023-03-01T18:05:30;13.23;;;9.13;;
6665;SDS011;3369;49.906;8.598;2023-03-01T18:08:13;14.37;;;9.93;;
6665;SDS011;3369;49.906;8.598;2023-03-01T18:10:47;14.40;;;10.53;;
6665;SDS011;3369;49.906;8.598;2023-03-01T18:13:13;14.53;;;9.57;;
6665;SDS011;3369;49.906;8.598;2023-03-01T18:15:42;13.43;;;9.30;;
6665;SDS011;3369;49.906;8.598;2023-03-01T18:18:08;14.70;;;9.37;;
6665;SDS011;3369;49.906;8.598;2023-03-01T18:20:33;10.67;;;9.00;;
6665;SDS011;3369;49.906;8.598;2023-03-01T18:22:59;13.07;;;9.37;;
6665;SDS011;3369;49.906;8.598;2023-03-01T18:25:25;14.17;;;9.80;;
6665;SDS011;3369;49.906;8.598;2023-03-01T18:27:51;15.80;;;9.87;;
6665;SDS011;3369;49.906;8.598;2023-03-01T18:30:17;14.90;;;10.17;;
6665;SDS011;3369;49.906;8.598;2023-03-01T18:32:46;15.20;;;10.80;;
6665;SDS011;3369;49.906;8.598;2023-03-01T18:35:12;13.37;;;9.20;;
6665;SDS011;3369;49.906;8.598;2023-03-01T18:37:39;15.87;;;11.40;;
6665;SDS011;3369;49.906;8.598;2023-03-01T18:40:05;14.77;;;10.10;;
6665;SDS011;3369;49.906;8.598;2023-03-01T18:42:32;15.00;;;10.03;;
6665;SDS011;3369;49.906;8.598;2023-03-01T18:44:58;15.77;;;10.13;;
6665;SDS011;3369;49.906;8.598;2023-03-01T18:47:35;13.00;;;9.57;;
6665;SDS011;3369;49.906;8.598;2023-03-01T18:50:01;14.50;;;10.43;;
6665;SDS011;3369;49.906;8.598;2023-03-01T18:52:30;15.47;;;9.80;;
6665;SDS011;3369;49.906;8.598;2023-03-01T18:54:56;11.77;;;9.63;;
6665;SDS011;3369;49.906;8.598;2023-03-01T18:57:22;14.87;;;9.40;;
6665;SDS011;3369;49.906;8.598;2023-03-01T18:59:48;13.17;;;9.60;;
6665;SDS011;3369;49.906;8.598;2023-03-01T19:02:14;14.37;;;10.47;;
6665;SDS011;3369;49.906;8.598;2023-03-01T19:04:40;14.97;;;9.70;;
6665;SDS011;3369;49.906;8.598;2023-03-01T19:29:01;14.00;;;9.30;;
6665;SDS011;3369;49.906;8.598;2023-03-01T19:31:28;16.23;;;9.13;;
6665;SDS011;3369;49.906;8.598;2023-03-01T19:33:55;15.90;;;9.83;;
6665;SDS011;3369;49.906;8.598;2023-03-01T19:37:09;11.63;;;9.00;;
6665;SDS011;3369;49.906;8.598;2023-03-01T19:39:42;15.57;;;9.13;;
6665;SDS011;3369;49.906;8.598;2023-03-01T19:42:08;14.53;;;10.10;;
6665;SDS011;3369;49.906;8.598;2023-03-01T19:44:38;16.00;;;10.50;;